Time;durP1;ratioP1;P1;durP2;ratioP2;P2;SDS_P1;SDS_P2;PMS_P1;PMS_P2;Temp;Humidity;BMP_temperature;BMP_pressure;BME280_temperature;BME280_humidity;BME280_pressure;Samples;Min_cycle;Max_cycle;Signal;HPM_P1;HPM_P2
2023/01/15 00:01:21;;;;;;;20.80;7.17;;;;;;;;;;5050669;28;20474;-62
2023/01/15 00:03:49;;;;;;;25.50;6.13;;;10.20;99.90;;;;;;5046755;28;21062;-62
2023/01/15 00:06:16;;;;;;;38.20;8.07;;;10.30;99.90;;;;;;5052427;28;21117;-61
2023/01/15 00:08:43;;;;;;;31.70;6.00;;;10.20;99.90;;;;;;5052483;28;20571;-62
2023/01/15 00:11:10;;;;;;;29.80;7.30;;;12.50;99.90;;;;;;5049783;28;21025;-61
2023/01/15 00:13:36;;;;;;;32.47;6.00;;;10.30;99.90;;;;;;5073622;28;20486;-62
2023/01/15 00:16:04;;;;;;;35.93;8.40;;;10.30;99.90;;;;;;5050551;28;20483;-62
2023/01/15 00:18:31;;;;;;;31.50;5.77;;;10.30;99.90;;;;;;5050800;28;20550;-63
2023/01/15 00:21:03;;;;;;;25.97;5.97;;;;;;;;;;5067752;28;20474;-62
2023/01/15 00:29:00;;;;;;;31.03;7.43;;;10.40;99.90;;;;;;5052055;28;20579;-63
2023/01/15 00:31:27;;;;;;;41.87;6.47;;;10.50;99.90;;;;;;5052393;28;20925;-63
2023/01/15 00:33:54;;;;;;;23.50;4.90;;;10.40;99.90;;;;;;5052424;28;20475;-62
2023/01/15 00:36:22;;;;;;;49.63;12.33;;;10.40;99.90;;;;;;5050865;28;20490;-63
2023/01/15 00:38:49;;;;;;;29.93;5.53;;;10.40;99.90;;;;;;5052619;28;20541;-63
2023/01/15 00:41:16;;;;;;;48.37;10.43;;;;;;;;;;5052328;28;20483;-63
2023/01/15 00:43:43;;;;;;;30.40;5.87;;;;;;;;;;5052312;28;21207;-62
2023/01/15 00:46:10;;;;;;;42.50;9.23;;;10.60;99.90;;;;;;5047798;28;20483;-61
2023/01/15 00:48:38;;;;;;;34.47;5.67;;;10.50;99.90;;;;;;5083308;28;21011;-63
2023/01/15 00:51:05;;;;;;;29.47;5.30;;;10.60;99.90;;;;;;5052353;28;20941;-62
2023/01/15 00:53:33;;;;;;;24.60;4.00;;;;;;;;;;5052740;28;20498;-61
2023/01/15 00:56:00;;;;;;;36.13;8.70;;;10.70;99.90;;;;;;5050932;28;20478;-62
2023/01/15 00:58:27;;;;;;;28.00;7.17;;;10.70;99.90;;;;;;5054514;28;20486;-62
2023/01/15 01:00:55;;;;;;;17.33;3.10;;;10.80;99.90;;;;;;5054770;28;20486;-61
2023/01/15 01:03:22;;;;;;;32.13;8.90;;;10.60;99.90;;;;;;5054900;28;20494;-62
2023/01/15 01:05:49;;;;;;;26.30;6.03;;;10.50;99.90;;;;;;5051665;28;20490;-62
2023/01/15 01:08:16;;;;;;;39.13;10.13;;;;;;;;;;5052180;28;20486;-61
2023/01/15 01:10:44;;;;;;;19.47;4.77;;;10.80;99.90;;;;;;5074482;28;20598;-63
2023/01/15 01:13:12;;;;;;;25.57;6.60;;;;;;;;;;5051959;28;20476;-62
2023/01/15 01:15:38;;;;;;;29.97;8.07;;;10.80;99.90;;;;;;5052686;28;20738;-63
2023/01/15 01:18:06;;;;;;;19.43;5.13;;;;;;;;;;5043629;28;21166;-62
2023/01/15 01:20:33;;;;;;;22.13;4.93;;;;;;;;;;5062745;28;20475;-62
2023/01/15 01:23:00;;;;;;;29.07;5.57;;;;;;;;;;5050224;28;20495;-62
2023/01/15 01:25:27;;;;;;;39.50;9.07;;;11.10;99.90;;;;;;5079745;28;21098;-62
2023/01/15 01:27:55;;;;;;;21.50;4.80;;;;;;;;;;5048186;28;20483;-63
2023/01/15 01:30:22;;;;;;;28.90;6.47;;;11.20;99.90;;;;;;5055688;28;20489;-63
2023/01/15 01:32:49;;;;;;;20.23;4.47;;;11.20;99.90;;;;;;5076168;28;20493;-62
2023/01/15 01:35:15;;;;;;;42.27;10.70;;;14.00;99.90;;;;;;5066052;28;20482;-62
2023/01/15 01:37:42;;;;;;;25.90;4.63;;;11.20;99.90;;;;;;5056145;28;20999;-62
2023/01/15 01:40:10;;;;;;;29.63;5.90;;;;;;;;;;5041000;28;20772;-62
2023/01/15 01:42:36;;;;;;;14.60;5.20;;;11.20;99.90;;;;;;5048410;28;20483;-63
2023/01/15 01:45:19;;;;;;;24.33;6.70;;;11.10;99.90;;;;;;5051078;28;21026;-63
2023/01/15 01:47:46;;;;;;;7.53;3.30;;;11.20;99.90;;;;;;5041425;28;20487;-62
2023/01/15 01:50:14;;;;;;;21.43;6.20;;;11.20;99.90;;;;;;5051638;28;21361;-62
2023/01/15 01:52:45;;;;;;;26.27;7.07;;;11.10;99.90;;;;;;5043620;28;20487;-61
2023/01/15 01:55:13;;;;;;;32.17;6.47;;;;;;;;;;5054947;28;20483;-62
2023/01/15 01:57:40;;;;;;;30.17;6.00;;;10.90;99.90;;;;;;5053738;28;20960;-61
2023/01/15 02:00:10;;;;;;;25.43;5.03;;;10.80;99.90;;;;;;5053998;28;20547;-61
2023/01/15 02:02:39;;;;;;;27.53;5.90;;;;;;;;;;5053889;28;20563;-62
2023/01/15 02:05:07;;;;;;;30.23;5.13;;;10.70;99.90;;;;;;5052767;28;20476;-62
2023/01/15 02:07:35;;;;;;;27.67;5.40;;;10.60;99.90;;;;;;5053772;28;20526;-61
2023/01/15 02:10:01;;;;;;;19.73;4.97;;;10.60;99.90;;;;;;5054406;28;20522;-61
2023/01/15 02:12:33;;;;;;;28.33;7.30;;;10.50;99.90;;;;;;5055425;28;20475;-62
2023/01/15 02:15:06;;;;;;;30.40;6.30;;;10.50;99.90;;;;;;5055516;28;20976;-61
2023/01/15 02:17:36;;;;;;;27.47;7.23;;;;;;;;;;5053101;28;20478;-63
2023/01/15 02:20:21;;;;;;;30.40;5.77;;;10.50;99.90;;;;;;5055360;28;20475;-62
2023/01/15 02:23:02;;;;;;;19.20;4.50;;;10.40;99.90;;;;;;5054499;28;20467;-61
2023/01/15 02:25:39;;;;;;;21.43;5.70;;;10.40;99.90;;;;;;5052861;28;20482;-61
2023/01/15 02:28:11;;;;;;;12.73;2.90;;;;;;;;;;5053782;28;20841;-61
2023/01/15 02:30:43;;;;;;;21.60;6.10;;;10.30;99.90;;;;;;5053984;28;20479;-62
2023/01/15 02:33:12;;;;;;;22.00;4.30;;;;;;;;;;5054509;28;20479;-61
2023/01/15 02:35:44;;;;;;;22.03;6.80;;;10.30;99.90;;;;;;5054619;28;20490;-61
2023/01/15 02:38:15;;;;;;;31.70;7.87;;;10.30;99.90;;;;;;5078622;28;20478;-61
2023/01/15 02:40:43;;;;;;;21.87;4.73;;;;;;;;;;5057660;28;20468;-61
2023/01/15 02:43:14;;;;;;;31.37;5.50;;;10.30;99.90;;;;;;5056651;28;20482;-62
2023/01/15 02:45:44;;;;;;;25.70;5.83;;;10.20;99.90;;;;;;5054938;28;20490;-61
2023/01/15 02:48:12;;;;;;;34.40;9.60;;;;;;;;;;5055401;28;20483;-61
2023/01/15 02:50:42;;;;;;;22.10;5.80;;;10.30;99.90;;;;;;5054456;28;21009;-62
2023/01/15 02:53:13;;;;;;;36.50;6.07;;;10.30;99.90;;;;;;5054647;28;20479;-61
2023/01/15 02:55:44;;;;;;;24.33;5.53;;;;;;;;;;5053460;28;20806;-61
2023/01/15 02:58:14;;;;;;;24.90;9.20;;;;;;;;;;5053154;28;20490;-61
2023/01/15 03:00:43;;;;;;;19.80;3.90;;;;;;;;;;5052809;28;21101;-61
2023/01/15 03:03:14;;;;;;;29.23;8.40;;;10.10;99.90;;;;;;5053093;28;20475;-61
2023/01/15 03:05:48;;;;;;;23.13;8.10;;;10.10;99.90;;;;;;5052501;28;20472;-61
2023/01/15 03:08:16;;;;;;;26.53;6.03;;;;;;;;;;5040575;28;20455;-62
2023/01/15 03:10:48;;;;;;;14.97;3.37;;;10.10;99.90;;;;;;5055525;28;20559;-62
2023/01/15 03:13:21;;;;;;;22.23;5.20;;;;;;;;;;5054439;28;20474;-62
2023/01/15 03:18:42;;;;;;;22.33;5.47;;;10.00;99.90;;;;;;5073605;28;20477;-62
2023/01/15 03:21:13;;;;;;;16.27;4.83;;;10.00;99.90;;;;;;5055096;28;20476;-62
2023/01/15 03:23:46;;;;;;;15.53;3.50;;;10.10;99.90;;;;;;5055356;28;21200;-61
2023/01/15 03:26:13;;;;;;;24.03;7.70;;;10.00;99.90;;;;;;5059190;28;20462;-62
2023/01/15 03:28:43;;;;;;;12.70;4.00;;;10.00;99.90;;;;;;5073353;28;20874;-61
2023/01/15 03:31:10;;;;;;;21.17;4.30;;;9.90;99.90;;;;;;5056183;28;20471;-62
2023/01/15 03:33:37;;;;;;;23.00;4.40;;;;;;;;;;5056445;28;20478;-62
2023/01/15 03:36:04;;;;;;;26.10;7.93;;;9.60;99.90;;;;;;5050269;28;20479;-62
2023/01/15 03:38:34;;;;;;;21.40;5.17;;;;;;;;;;5054002;28;20548;-62
2023/01/15 03:41:12;;;;;;;17.80;5.50;;;9.50;99.90;;;;;;5054156;28;21320;-62
2023/01/15 03:43:51;;;;;;;25.93;5.77;;;9.50;99.90;;;;;;5053639;28;20506;-62
2023/01/15 03:46:32;;;;;;;38.47;10.20;;;9.50;99.90;;;;;;5039006;28;20467;-62
2023/01/15 03:49:07;;;;;;;20.23;4.70;;;9.30;99.90;;;;;;5053237;28;20479;-62
2023/01/15 03:51:40;;;;;;;14.90;4.40;;;9.40;99.90;;;;;;5052974;28;20482;-62
2023/01/15 03:54:09;;;;;;;25.80;4.67;;;;;;;;;;5052130;28;20944;-61
2023/01/15 03:56:47;;;;;;;23.40;4.83;;;9.20;99.90;;;;;;5052870;28;20483;-62
2023/01/15 03:59:21;;;;;;;30.10;8.73;;;9.10;99.90;;;;;;5051364;28;20482;-63
2023/01/15 04:01:49;;;;;;;15.10;4.00;;;8.90;99.90;;;;;;5049582;28;20482;-62
2023/01/15 04:04:16;;;;;;;45.50;11.03;;;;;;;;;;5053197;28;20506;-62
2023/01/15 04:06:44;;;;;;;17.90;4.43;;;;;;;;;;5051054;28;20483;-62
2023/01/15 04:09:13;;;;;;;27.87;6.23;;;8.70;99.90;;;;;;5053719;28;20583;-62
2023/01/15 04:11:40;;;;;;;21.87;6.23;;;8.60;99.90;;;;;;5053018;28;20483;-62
2023/01/15 04:14:07;;;;;;;25.30;5.23;;;8.70;99.90;;;;;;5051671;28;20895;-62
2023/01/15 04:16:36;;;;;;;28.13;6.80;;;;;;;;;;5050152;28;20567;-61
2023/01/15 04:19:02;;;;;;;29.60;5.30;;;8.60;99.90;;;;;;5055497;28;20467;-62
2023/01/15 04:21:29;;;;;;;30.80;4.47;;;8.60;99.90;;;;;;5055208;28;20472;-61
2023/01/15 04:23:56;;;;;;;30.67;6.30;;;8.60;99.90;;;;;;5055638;28;20533;-62
2023/01/15 04:26:23;;;;;;;45.17;10.40;;;8.50;99.90;;;;;;5055993;28;20472;-62
2023/01/15 04:28:50;;;;;;;23.17;4.07;;;;;;;;;;5056373;28;21005;-62
2023/01/15 04:31:17;;;;;;;38.40;8.17;;;;;;;;;;5055369;28;20979;-62
2023/01/15 04:33:45;;;;;;;24.00;4.73;;;8.40;99.90;;;;;;5054540;28;20487;-61
2023/01/15 04:36:13;;;;;;;42.10;8.83;;;8.30;99.90;;;;;;5049776;28;20482;-61
2023/01/15 04:38:40;;;;;;;33.23;5.63;;;;;;;;;;5057360;28;20483;-62
2023/01/15 04:46:40;;;;;;;28.73;5.23;;;8.10;99.90;;;;;;5053424;28;20887;-62
2023/01/15 04:49:11;;;;;;;34.63;6.23;;;;;;;;;;5057868;28;20486;-61
2023/01/15 04:51:38;;;;;;;16.77;3.40;;;8.10;99.90;;;;;;5059124;28;20496;-61
2023/01/15 04:54:05;;;;;;;30.43;6.17;;;8.10;99.90;;;;;;5059797;28;21200;-62
2023/01/15 04:56:36;;;;;;;24.67;5.30;;;7.90;99.90;;;;;;5057016;28;20599;-61
2023/01/15 04:59:03;;;;;;;21.50;4.10;;;8.00;99.90;;;;;;5058346;28;20471;-61
2023/01/15 05:01:30;;;;;;;34.87;6.20;;;;;;;;;;5058140;28;20483;-61
2023/01/15 05:03:57;;;;;;;27.40;6.40;;;8.00;99.90;;;;;;5056328;28;20484;-62
2023/01/15 05:06:26;;;;;;;36.13;8.37;;;8.00;99.90;;;;;;5054419;28;20519;-62
2023/01/15 05:08:53;;;;;;;22.20;4.30;;;8.00;99.90;;;;;;5056435;28;21100;-61
2023/01/15 05:11:21;;;;;;;42.00;7.17;;;;;;;;;;5080871;28;20471;-61
2023/01/15 05:13:48;;;;;;;22.60;4.33;;;8.00;99.90;;;;;;5058545;28;20478;-61
2023/01/15 05:16:17;;;;;;;55.30;12.60;;;8.00;99.90;;;;;;5056311;28;20455;-61
2023/01/15 05:18:45;;;;;;;20.87;4.27;;;7.90;99.90;;;;;;5057588;28;20483;-61
2023/01/15 05:21:17;;;;;;;38.83;6.67;;;7.90;99.90;;;;;;5048716;28;20475;-61
2023/01/15 05:23:45;;;;;;;23.87;4.07;;;7.90;99.90;;;;;;5074616;28;20502;-61
2023/01/15 05:26:12;;;;;;;37.23;10.83;;;;;;;;;;5057986;28;20566;-61
2023/01/15 05:28:39;;;;;;;22.93;4.40;;;7.90;99.90;;;;;;5055176;28;20484;-60
2023/01/15 05:31:08;;;;;;;22.53;4.83;;;7.90;99.90;;;;;;5057832;28;20839;-61
2023/01/15 05:33:35;;;;;;;20.13;4.13;;;7.80;99.90;;;;;;5058182;28;20523;-61
2023/01/15 05:36:02;;;;;;;29.17;6.47;;;7.70;99.90;;;;;;5054288;28;20479;-61
2023/01/15 05:38:29;;;;;;;24.23;4.93;;;;;;;;;;5055168;28;20495;-61
2023/01/15 05:40:57;;;;;;;24.37;4.40;;;7.70;99.90;;;;;;5089154;28;20494;-61
2023/01/15 05:43:24;;;;;;;24.57;5.80;;;7.70;99.90;;;;;;5082208;28;20483;-61
2023/01/15 05:45:51;;;;;;;22.53;4.50;;;7.60;99.90;;;;;;5059303;28;20474;-61
2023/01/15 05:48:18;;;;;;;34.10;8.80;;;7.50;99.90;;;;;;5056835;28;20975;-61
2023/01/15 05:50:45;;;;;;;18.97;3.63;;;7.50;99.90;;;;;;5060722;28;20494;-61
2023/01/15 05:53:12;;;;;;;39.13;8.97;;;;;;;;;;5061863;28;21003;-61
2023/01/15 05:55:38;;;;;;;20.90;4.83;;;7.50;99.90;;;;;;5058741;28;20485;-61
2023/01/15 05:58:06;;;;;;;23.63;4.00;;;7.50;99.90;;;;;;5058269;28;20483;-61
2023/01/15 06:00:33;;;;;;;18.53;3.60;;;7.50;99.90;;;;;;5061454;28;20487;-61
2023/01/15 06:03:00;;;;;;;26.27;5.47;;;7.40;99.90;;;;;;5060895;28;20483;-61
2023/01/15 06:05:27;;;;;;;22.30;3.97;;;;;;;;;;5060880;28;20484;-60
2023/01/15 06:07:54;;;;;;;13.97;3.87;;;7.50;99.90;;;;;;5058921;28;20470;-60
2023/01/15 06:10:21;;;;;;;37.53;8.23;;;;;;;;;;5061094;28;20487;-60
2023/01/15 06:12:47;;;;;;;27.83;3.97;;;7.50;99.90;;;;;;5060453;28;20479;-61
2023/01/15 06:15:16;;;;;;;28.93;5.70;;;;;;;;;;5059592;28;20483;-61
2023/01/15 06:17:43;;;;;;;27.00;5.23;;;7.40;99.90;;;;;;5060491;28;20482;-61
2023/01/15 06:20:11;;;;;;;30.33;5.77;;;7.50;99.90;;;;;;5059517;28;21034;-61
2023/01/15 06:22:38;;;;;;;29.17;5.90;;;7.40;99.90;;;;;;5061279;28;20537;-61
2023/01/15 06:25:07;;;;;;;27.93;5.53;;;7.40;99.90;;;;;;5061978;28;20562;-61
2023/01/15 06:27:33;;;;;;;20.70;3.77;;;7.40;99.90;;;;;;5059445;28;20510;-60
2023/01/15 06:30:00;;;;;;;25.23;4.57;;;7.40;99.90;;;;;;5051438;28;20483;-60
2023/01/15 06:32:28;;;;;;;26.23;5.70;;;7.40;99.90;;;;;;5060064;28;20847;-60
2023/01/15 06:34:55;;;;;;;14.53;3.80;;;7.30;99.90;;;;;;5059195;28;20463;-61
2023/01/15 06:37:22;;;;;;;57.27;10.40;;;7.30;99.90;;;;;;5056697;28;20827;-60
2023/01/15 06:39:48;;;;;;;18.30;3.77;;;7.20;99.90;;;;;;5058269;28;20479;-60
2023/01/15 06:47:47;;;;;;;32.50;6.80;;;7.30;99.90;;;;;;5058863;28;20494;-60
2023/01/15 06:50:14;;;;;;;34.60;7.40;;;7.30;99.90;;;;;;5059715;28;20514;-61
2023/01/15 06:52:41;;;;;;;13.70;3.10;;;;;;;;;;5059457;28;20479;-60
2023/01/15 06:55:11;;;;;;;23.30;5.80;;;;;;;;;;5059611;28;20483;-60
2023/01/15 06:57:38;;;;;;;23.83;6.27;;;7.20;99.90;;;;;;5057906;28;20545;-60
2023/01/15 07:00:06;;;;;;;29.67;4.93;;;;;;;;;;5060700;28;20507;-60
2023/01/15 07:02:33;;;;;;;32.57;6.13;;;7.30;99.90;;;;;;5060256;28;20475;-60
2023/01/15 07:05:01;;;;;;;21.73;5.10;;;;;;;;;;5058184;28;20936;-60
2023/01/15 07:07:29;;;;;;;23.03;5.23;;;7.20;99.90;;;;;;5055322;28;21331;-61
2023/01/15 07:09:56;;;;;;;20.03;4.40;;;;;;;;;;5056919;28;20498;-61
2023/01/15 07:12:23;;;;;;;40.90;9.63;;;7.10;99.90;;;;;;5057670;28;20486;-61
2023/01/15 07:14:50;;;;;;;24.10;4.70;;;;;;;;;;5056693;28;20836;-61
2023/01/15 07:17:17;;;;;;;39.77;9.40;;;7.00;99.90;;;;;;5055508;28;20494;-61
2023/01/15 07:19:44;;;;;;;25.63;4.90;;;;;;;;;;5058881;28;20495;-60
2023/01/15 07:22:13;;;;;;;36.37;8.10;;;7.10;99.90;;;;;;5059791;28;20479;-60
2023/01/15 07:24:39;;;;;;;30.90;6.00;;;7.10;99.90;;;;;;5060146;28;20483;-60
2023/01/15 07:27:06;;;;;;;23.70;5.00;;;7.00;99.90;;;;;;5059048;28;21038;-62
2023/01/15 07:29:33;;;;;;;25.30;4.70;;;;;;;;;;5059310;28;20483;-60
2023/01/15 07:32:00;;;;;;;21.60;4.80;;;7.00;99.90;;;;;;5057980;28;20502;-60
2023/01/15 07:34:27;;;;;;;24.83;6.23;;;7.00;99.90;;;;;;5057056;28;20510;-60
2023/01/15 07:36:53;;;;;;;24.50;4.63;;;7.00;99.90;;;;;;5055386;28;20479;-61
2023/01/15 07:39:22;;;;;;;24.67;7.57;;;7.00;99.90;;;;;;5057062;28;20761;-61
2023/01/15 07:50:06;;;;;;;16.93;4.87;;;6.80;99.90;;;;;;5057031;28;20485;-61
2023/01/15 07:52:32;;;;;;;20.30;4.03;;;6.80;99.90;;;;;;5058688;28;20467;-61
2023/01/15 07:55:02;;;;;;;16.67;4.83;;;;;;;;;;5057940;28;20515;-61
2023/01/15 07:57:30;;;;;;;18.33;5.50;;;6.80;99.90;;;;;;5056391;28;21148;-61
2023/01/15 07:59:57;;;;;;;18.70;4.33;;;;;;;;;;5057540;28;20506;-61
2023/01/15 08:02:24;;;;;;;24.93;7.00;;;6.90;99.90;;;;;;5057422;28;21003;-61
2023/01/15 08:04:51;;;;;;;14.40;4.03;;;;;;;;;;5054378;28;20484;-60
2023/01/15 08:07:18;;;;;;;34.77;10.30;;;;;;;;;;5056162;28;20860;-61
2023/01/15 08:09:45;;;;;;;16.50;3.17;;;;;;;;;;5058616;28;21019;-61
2023/01/15 08:15:15;;;;;;;30.40;6.57;;;6.80;99.90;;;;;;5021322;28;20517;-61
2023/01/15 08:17:43;;;;;;;21.97;2.93;;;;;;;;;;5071212;28;20489;-60
2023/01/15 08:20:12;;;;;;;19.23;4.83;;;;;;;;;;5063538;28;20490;-60
2023/01/15 08:22:39;;;;;;;25.40;5.17;;;;;;;;;;5059215;28;20877;-60
2023/01/15 08:25:08;;;;;;;23.57;4.80;;;6.80;99.90;;;;;;5058838;28;20483;-61
2023/01/15 08:27:36;;;;;;;15.27;4.90;;;6.80;99.90;;;;;;5051839;28;20518;-61
2023/01/15 08:30:04;;;;;;;22.43;5.87;;;;;;;;;;5075380;28;20502;-60
2023/01/15 08:32:31;;;;;;;19.27;5.70;;;6.80;99.90;;;;;;5075130;28;20977;-60
2023/01/15 08:34:58;;;;;;;22.17;4.43;;;6.80;99.90;;;;;;5048779;28;20479;-60
2023/01/15 08:37:25;;;;;;;29.53;6.90;;;;;;;;;;5053872;28;20476;-61
2023/01/15 08:39:52;;;;;;;11.40;2.60;;;6.70;99.90;;;;;;5059794;28;20476;-61
2023/01/15 08:42:19;;;;;;;39.10;10.50;;;6.80;99.90;;;;;;5059056;28;20467;-60
2023/01/15 08:44:48;;;;;;;16.70;3.90;;;6.80;99.90;;;;;;5058019;28;20507;-61
2023/01/15 08:47:15;;;;;;;32.93;7.97;;;6.80;99.90;;;;;;5055480;28;20487;-61
2023/01/15 08:49:43;;;;;;;20.47;3.57;;;;;;;;;;5057897;28;20490;-60
2023/01/15 08:52:09;;;;;;;22.43;5.27;;;6.80;99.90;;;;;;5058009;28;20471;-62
2023/01/15 08:54:36;;;;;;;21.63;3.90;;;6.70;99.90;;;;;;5047389;28;20978;-61
2023/01/15 08:57:03;;;;;;;17.23;4.20;;;6.70;99.90;;;;;;5055516;28;20482;-60
2023/01/15 08:59:30;;;;;;;16.90;4.40;;;6.60;99.90;;;;;;5059259;28;20491;-60
2023/01/15 09:01:58;;;;;;;26.93;5.70;;;6.60;99.90;;;;;;5058839;28;20486;-61
2023/01/15 09:04:25;;;;;;;30.53;7.27;;;6.60;99.90;;;;;;5057240;28;20491;-61
2023/01/15 09:06:52;;;;;;;16.67;3.37;;;6.50;99.90;;;;;;5051692;28;20475;-60
2023/01/15 09:09:19;;;;;;;25.73;7.57;;;;;;;;;;5058775;28;20482;-60
2023/01/15 09:11:46;;;;;;;18.13;4.63;;;;;;;;;;5072660;28;20483;-60
2023/01/15 09:14:15;;;;;;;30.00;7.07;;;6.50;99.90;;;;;;5056581;28;20479;-60
2023/01/15 09:16:42;;;;;;;17.73;4.20;;;6.40;99.90;;;;;;5042892;28;20478;-61
2023/01/15 09:19:11;;;;;;;29.70;6.37;;;6.50;99.90;;;;;;5060470;28;20474;-60
2023/01/15 09:21:38;;;;;;;12.80;1.60;;;;;;;;;;5075805;28;21266;-60
2023/01/15 09:24:05;;;;;;;17.80;4.53;;;6.50;99.90;;;;;;5057151;28;20480;-60
2023/01/15 09:26:33;;;;;;;24.43;4.50;;;;;;;;;;5053076;28;20491;-61
2023/01/15 09:29:01;;;;;;;20.20;4.00;;;6.50;99.90;;;;;;5057737;28;20509;-60
2023/01/15 09:31:28;;;;;;;19.93;5.30;;;6.50;99.90;;;;;;5049922;28;20470;-61
2023/01/15 09:33:55;;;;;;;14.17;3.70;;;6.50;99.90;;;;;;5079911;28;20487;-61
2023/01/15 09:36:27;;;;;;;27.17;6.90;;;6.50;99.90;;;;;;5048814;28;20479;-60
2023/01/15 09:38:54;;;;;;;15.20;3.90;;;6.30;99.90;;;;;;5051308;28;20618;-61
2023/01/15 09:44:20;;;;;;;15.70;5.80;;;6.40;99.90;;;;;;5052693;28;20563;-61
2023/01/15 09:47:00;;;;;;;14.30;4.33;;;6.40;99.90;;;;;;5038037;28;20489;-60
2023/01/15 09:49:37;;;;;;;20.67;6.33;;;6.50;99.90;;;;;;5075855;28;20947;-60
2023/01/15 09:52:13;;;;;;;24.60;5.33;;;6.40;99.90;;;;;;5053193;28;20485;-61
2023/01/15 09:54:48;;;;;;;13.97;3.93;;;6.40;99.90;;;;;;5055956;28;20483;-60
2023/01/15 09:57:16;;;;;;;27.10;7.93;;;;;;;;;;5047996;28;20479;-61
2023/01/15 09:59:46;;;;;;;21.03;3.90;;;6.30;99.90;;;;;;5050522;28;20810;-61
2023/01/15 10:02:23;;;;;;;22.07;7.30;;;6.40;99.90;;;;;;5081529;28;20978;-60
2023/01/15 10:04:51;;;;;;;21.60;3.40;;;;;;;;;;5055815;28;20830;-59
2023/01/15 10:07:23;;;;;;;30.30;8.20;;;;;;;;;;5053583;28;20490;-60
2023/01/15 10:09:56;;;;;;;16.57;3.90;;;;;;;;;;5046334;28;20854;-60
2023/01/15 10:12:38;;;;;;;33.70;8.30;;;6.30;99.90;;;;;;5057197;28;20478;-60
2023/01/15 10:15:11;;;;;;;20.60;4.67;;;;;;;;;;5058796;28;20471;-61
2023/01/15 10:17:40;;;;;;;26.47;5.67;;;;;;;;;;5054894;28;20496;-61
2023/01/15 10:20:14;;;;;;;20.17;5.30;;;8.40;99.90;;;;;;5058482;28;20526;-61
2023/01/15 10:22:49;;;;;;;25.60;3.90;;;;;;;;;;5056834;28;20468;-61
2023/01/15 10:25:19;;;;;;;21.97;7.40;;;6.40;99.90;;;;;;5057821;28;20471;-61
2023/01/15 10:27:50;;;;;;;14.03;2.77;;;6.40;99.90;;;;;;5044207;28;20781;-61
2023/01/15 10:30:18;;;;;;;23.20;7.23;;;;;;;;;;5049479;28;20479;-61
2023/01/15 10:32:48;;;;;;;17.50;2.87;;;;;;;;;;5040870;28;20477;-61
2023/01/15 10:35:34;;;;;;;20.43;6.13;;;6.40;99.90;;;;;;5083225;28;20479;-61
2023/01/15 10:38:06;;;;;;;23.10;4.80;;;;;;;;;;5046644;28;20482;-61
2023/01/15 10:41:14;;;;;;;28.10;5.87;;;6.40;99.90;;;;;;5058376;28;20486;-60
2023/01/15 10:43:50;;;;;;;23.27;4.93;;;6.30;99.90;;;;;;5039506;28;20480;-61
2023/01/15 10:46:18;;;;;;;31.07;9.50;;;;;;;;;;5046793;28;20486;-61
2023/01/15 10:48:47;;;;;;;24.03;3.43;;;;;;;;;;5080285;28;20830;-61
2023/01/15 10:51:18;;;;;;;25.33;7.30;;;6.20;99.90;;;;;;5058381;28;20475;-61
2023/01/15 10:53:49;;;;;;;17.80;4.80;;;4.40;99.90;;;;;;5056279;28;20915;-61
2023/01/15 10:56:21;;;;;;;36.10;9.97;;;6.30;99.90;;;;;;5057058;28;20576;-61
2023/01/15 10:58:54;;;;;;;12.60;3.10;;;6.40;99.90;;;;;;5055836;28;20486;-61
2023/01/15 11:01:24;;;;;;;40.70;9.20;;;;;;;;;;5045967;28;20829;-60
2023/01/15 11:03:51;;;;;;;17.07;4.80;;;6.40;99.90;;;;;;5060533;28;20467;-60
2023/01/15 11:06:20;;;;;;;29.10;8.43;;;6.50;99.90;;;;;;5058349;28;20490;-60
2023/01/15 11:08:51;;;;;;;18.67;3.73;;;;;;;;;;5061308;28;20495;-60
2023/01/15 11:11:20;;;;;;;32.37;8.23;;;;;;;;;;5061078;28;20896;-62
2023/01/15 11:19:37;;;;;;;34.07;6.60;;;6.60;99.90;;;;;;5079351;28;20510;-61
2023/01/15 11:22:08;;;;;;;25.73;5.30;;;6.20;99.90;;;;;;5058485;28;20697;-62
2023/01/15 11:24:37;;;;;;;18.00;3.70;;;7.00;99.90;;;;;;5055464;28;20581;-61
2023/01/15 11:27:06;;;;;;;22.33;4.57;;;6.70;99.90;;;;;;5055108;28;20475;-61
2023/01/15 11:29:36;;;;;;;20.23;4.80;;;7.40;99.90;;;;;;5059500;28;20486;-61
2023/01/15 11:32:03;;;;;;;23.13;5.10;;;7.50;99.90;;;;;;5061319;28;20518;-61
2023/01/15 11:34:30;;;;;;;17.80;5.57;;;7.50;99.90;;;;;;5056657;28;20490;-61
2023/01/15 11:37:04;;;;;;;25.97;5.07;;;7.50;99.90;;;;;;5056999;28;20472;-61
2023/01/15 11:39:31;;;;;;;19.00;5.33;;;7.50;99.90;;;;;;5060105;28;20489;-62
2023/01/15 11:53:07;;;;;;;21.43;6.20;;;;;;;;;;5059970;28;20474;-61
2023/01/15 11:55:34;;;;;;;16.00;4.40;;;7.60;99.90;;;;;;5057961;28;20490;-60
2023/01/15 11:58:02;;;;;;;17.27;4.03;;;;;;;;;;5054209;28;20478;-60
2023/01/15 12:00:33;;;;;;;23.30;5.80;;;8.00;99.90;;;;;;5057511;28;20471;-61
2023/01/15 12:03:05;;;;;;;19.83;5.20;;;8.10;99.90;;;;;;5061484;28;21003;-60
2023/01/15 12:05:35;;;;;;;28.23;4.20;;;8.20;99.90;;;;;;5057826;28;20467;-61
2023/01/15 12:08:10;;;;;;;17.23;5.47;;;8.10;99.90;;;;;;5052427;28;20488;-61
2023/01/15 12:11:03;;;;;;;38.10;6.07;;;8.10;99.90;;;;;;5058687;28;20490;-60
2023/01/15 12:13:42;;;;;;;28.07;5.50;;;8.10;99.90;;;;;;5047398;28;20494;-61
2023/01/15 12:16:16;;;;;;;31.23;8.37;;;8.20;99.90;;;;;;5053353;28;21109;-61
2023/01/15 12:18:58;;;;;;;28.13;4.03;;;8.10;99.90;;;;;;5058839;28;20544;-61
2023/01/15 12:22:05;;;;;;;28.90;8.23;;;8.20;99.90;;;;;;5064331;28;20469;-60
2023/01/15 12:24:48;;;;;;;27.00;4.63;;;8.10;99.90;;;;;;5064765;28;20478;-60
2023/01/15 12:27:54;;;;;;;29.93;8.17;;;8.00;99.90;;;;;;5055355;28;20480;-61
2023/01/15 12:30:27;;;;;;;38.30;9.40;;;;;;;;;;5058751;28;20475;-60
2023/01/15 12:33:03;;;;;;;21.80;4.80;;;8.00;99.90;;;;;;5056004;28;20819;-60
2023/01/15 12:35:32;;;;;;;24.30;5.70;;;8.00;99.90;;;;;;5056792;28;21174;-61
2023/01/15 12:38:10;;;;;;;21.93;5.17;;;4.60;99.90;;;;;;5050488;28;20478;-61
2023/01/15 12:40:44;;;;;;;25.13;4.57;;;7.90;99.90;;;;;;5057239;28;20982;-61
2023/01/15 12:46:20;;;;;;;50.83;12.90;;;;;;;;;;5005312;28;20911;-61
2023/01/15 12:48:53;;;;;;;19.37;3.70;;;7.80;99.90;;;;;;5005392;28;20796;-61
2023/01/15 12:51:27;;;;;;;30.30;8.80;;;7.70;99.90;;;;;;5024809;28;20534;-61
2023/01/15 12:53:58;;;;;;;27.73;4.20;;;7.80;99.90;;;;;;5053862;28;20494;-61
2023/01/15 12:56:29;;;;;;;29.93;10.37;;;7.90;99.90;;;;;;5065830;28;20494;-61
2023/01/15 12:59:04;;;;;;;20.27;4.03;;;8.00;99.90;;;;;;5056328;28;20867;-61
2023/01/15 13:01:44;;;;;;;37.53;7.63;;;8.10;99.90;;;;;;5058586;28;20478;-61
2023/01/15 13:04:16;;;;;;;21.20;4.97;;;8.10;99.90;;;;;;5056597;28;20486;-61
2023/01/15 13:06:47;;;;;;;25.60;4.60;;;8.10;99.90;;;;;;5053880;28;20487;-60
2023/01/15 13:09:25;;;;;;;35.07;5.93;;;8.00;99.90;;;;;;5052747;28;20491;-60
2023/01/15 13:11:52;;;;;;;23.03;4.90;;;8.00;99.90;;;;;;5056762;28;20484;-61
2023/01/15 13:14:20;;;;;;;26.97;8.37;;;7.90;99.90;;;;;;5055946;28;20494;-61
2023/01/15 13:16:56;;;;;;;22.13;4.90;;;;;;;;;;5052452;28;20860;-61
2023/01/15 13:19:32;;;;;;;18.33;5.60;;;8.00;99.90;;;;;;5055774;28;20529;-61
2023/01/15 13:22:03;;;;;;;17.67;5.30;;;8.00;99.90;;;;;;5054628;28;20487;-61
2023/01/15 13:24:54;;;;;;;21.27;7.40;;;7.80;99.90;;;;;;5055919;28;20479;-61
2023/01/15 13:27:31;;;;;;;28.30;7.80;;;7.80;99.90;;;;;;5039055;28;20479;-61
2023/01/15 13:30:06;;;;;;;26.67;6.00;;;;;;;;;;5053052;28;20483;-61
2023/01/15 13:32:43;;;;;;;26.87;5.30;;;8.00;99.90;;;;;;5056475;28;20475;-61
2023/01/15 13:35:19;;;;;;;21.27;5.50;;;7.90;99.90;;;;;;5057640;28;20475;-60
2023/01/15 13:37:49;;;;;;;20.40;3.27;;;8.00;99.90;;;;;;5054330;28;20485;-61
2023/01/15 13:40:23;;;;;;;20.43;5.83;;;8.00;99.90;;;;;;5060877;28;20471;-61
2023/01/15 13:42:51;;;;;;;34.63;5.90;;;7.80;99.90;;;;;;5051742;28;20856;-61
2023/01/15 13:45:31;;;;;;;35.13;7.40;;;;;;;;;;5057077;28;20472;-61
2023/01/15 13:48:04;;;;;;;24.27;5.03;;;;;;;;;;5049788;28;20458;-61
2023/01/15 13:50:35;;;;;;;23.00;6.03;;;8.00;99.90;;;;;;5056490;28;20490;-61
2023/01/15 13:53:06;;;;;;;24.37;5.60;;;7.90;99.90;;;;;;5048143;28;20486;-61
2023/01/15 13:55:35;;;;;;;23.20;6.60;;;;;;;;;;5076468;28;20506;-61
2023/01/15 13:58:02;;;;;;;27.57;7.23;;;;;;;;;;5062788;28;20620;-60
2023/01/15 14:00:31;;;;;;;38.70;9.20;;;;;;;;;;5053096;28;20815;-60
2023/01/15 14:03:01;;;;;;;20.90;4.87;;;7.70;99.90;;;;;;5056526;28;20482;-60
2023/01/15 14:05:31;;;;;;;24.57;8.40;;;7.80;99.90;;;;;;5058704;28;20595;-60
2023/01/15 14:08:00;;;;;;;23.73;6.30;;;;;;;;;;5052077;28;20482;-61
2023/01/15 14:10:35;;;;;;;49.73;8.67;;;7.60;99.90;;;;;;5058866;28;20483;-61
2023/01/15 14:13:14;;;;;;;30.83;8.67;;;;;;;;;;5060642;28;21186;-61
2023/01/15 14:15:46;;;;;;;22.83;6.40;;;;;;;;;;5056406;28;20487;-61
2023/01/15 14:18:55;;;;;;;25.40;4.80;;;7.60;99.90;;;;;;5057468;28;21023;-60
2023/01/15 14:21:31;;;;;;;27.13;8.40;;;7.60;99.90;;;;;;5017382;28;20473;-61